Ciudad Guzman, Mexico

5:44 PM CDT on August 31, 2016 (GMT -0500)
MeteoCiudadGuzman | | Change Station

Elev 5013 ft 19.70 °N, 103.47 °W | Updated 50 seconds ago

Scattered Clouds
Scattered Clouds
73.4 °F
Feels Like 76 °F
N
1.3
Wind Variable Wind from North
Gusts 4.0 mph

Today
High -- | Low -- °F
--% Chance of Precip.
Yesterday
High -- | Low -- °F
Precip. -- in
Pressure 30.07 in
Visibility 10.0 miles
Clouds Scattered Clouds 3000 ft
Heat Index 76 °F
Dew Point 61 °F
Humidity 65%
Rainfall 0.00 in
Snow Depth Not available.
7:38 AM 8:09 PM
Waning Crescent, 0% visible
METAR MMGL 312146Z 06004KT 10SM SCT030 28/13 A3007 RMK 8/100
Pressure 30.07 in
Visibility 10.0 miles
Clouds Scattered Clouds 3000 ft
Heat Index 76 °F
Dew Point 61 °F
Humidity 65%
Rainfall 0.00 in
Snow Depth Not available.
7:38 AM 8:09 PM
Waning Crescent, 0% visible
METAR MMGL 312146Z 06004KT 10SM SCT030 28/13 A3007 RMK 8/100

10-Day Weather Forecast

No radar image for this location.
×

Almanac

Astronomy

Aug. 31, 2016 Rise Set
Actual Time
Civil Twilight
Nautical Twilight
Astronomical Twilight
Moon
Length of Visible Light
Length of Day
Tomorrow will be .
, % of the Moon is Illuminated

Today's Extremes

Country Highs Country Lows

Community

WunderPhotos

Upload Photos

1,936,204 photos uploaded!

WunderBlog® & News

Nearby

Air Quality

  Air Quality AQ Index Pollutant
Not available.

Snow Depth

Station Depth Elevation

Earthquake Activity

City Distance Mag. Time & Date
Minimum magnitude displayed is 2.5.

Coastal Water Temperatures

Place Temperature

Stations

Nearby Weather Stations

Station Location Temp. Windchill Dew Point Humidity Wind Precip. Elev Updated Type